createdAt,value
2022-11-24T00:01:27.146Z,6.08
2022-11-24T00:03:55.928Z,6.15
2022-11-24T00:06:24.307Z,6.06
2022-11-24T00:08:52.171Z,6.01
2022-11-24T00:11:23.108Z,6.04
2022-11-24T00:13:51.148Z,6.00
2022-11-24T00:16:23.238Z,5.90
2022-11-24T00:18:52.636Z,6.03
2022-11-24T00:21:21.510Z,6.08
2022-11-24T00:23:50.166Z,5.96
2022-11-24T00:26:21.563Z,6.04
2022-11-24T00:28:53.029Z,6.07
2022-11-24T00:31:31.876Z,6.02
2022-11-24T00:34:02.549Z,5.97
2022-11-24T00:36:32.239Z,6.01
2022-11-24T00:39:06.110Z,6.08
2022-11-24T00:41:34.289Z,5.93
2022-11-24T00:44:01.900Z,6.00
2022-11-24T00:46:30.107Z,5.99
2022-11-24T00:48:58.162Z,5.96
2022-11-24T00:51:28.039Z,5.89
2022-11-24T00:53:56.648Z,5.83
2022-11-24T00:56:25.433Z,5.87
2022-11-24T00:58:53.072Z,5.95
2022-11-24T01:01:23.388Z,5.95
2022-11-24T01:03:51.978Z,5.89
2022-11-24T01:06:22.191Z,5.87
2022-11-24T01:08:50.406Z,5.82
2022-11-24T01:11:24.132Z,5.99
2022-11-24T01:13:57.499Z,5.85
2022-11-24T01:16:31.457Z,5.80
2022-11-24T01:18:59.106Z,5.62
2022-11-24T01:21:26.632Z,5.80
2022-11-24T01:23:54.147Z,5.87
2022-11-24T01:26:22.773Z,5.72
2022-11-24T01:28:58.616Z,5.79
2022-11-24T01:31:26.604Z,6.94
2022-11-24T01:33:55.630Z,7.17
2022-11-24T01:36:23.208Z,7.35
2022-11-24T01:38:51.422Z,7.39
2022-11-24T01:41:21.887Z,7.48
2022-11-24T01:43:50.936Z,7.23
2022-11-24T01:46:42.205Z,7.44
2022-11-24T01:49:09.692Z,7.47
2022-11-24T01:51:45.525Z,7.54
2022-11-24T01:54:22.062Z,7.52
2022-11-24T01:56:53.518Z,7.52
2022-11-24T01:59:23.046Z,7.73
2022-11-24T02:01:52.314Z,7.82
2022-11-24T02:04:24.597Z,7.63
2022-11-24T02:06:53.984Z,7.75
2022-11-24T02:09:33.308Z,7.89
2022-11-24T02:12:02.076Z,7.72
2022-11-24T02:14:29.829Z,7.63
2022-11-24T02:16:57.322Z,7.46
2022-11-24T02:19:40.233Z,7.22
2022-11-24T02:22:15.301Z,7.58
2022-11-24T02:25:11.730Z,7.50
2022-11-24T02:27:39.311Z,7.46
2022-11-24T02:30:07.234Z,7.24
2022-11-24T02:32:35.029Z,7.27
2022-11-24T02:35:05.260Z,7.58
2022-11-24T02:37:32.697Z,7.68
2022-11-24T02:40:06.206Z,7.63
2022-11-24T02:42:39.952Z,7.44
2022-11-24T02:45:09.771Z,7.42
2022-11-24T02:47:37.296Z,7.21
2022-11-24T02:50:05.174Z,7.35
2022-11-24T02:52:32.944Z,7.47
2022-11-24T02:55:00.535Z,7.33
2022-11-24T02:57:27.998Z,7.26
2022-11-24T02:59:55.930Z,7.34
2022-11-24T03:02:23.680Z,7.30
2022-11-24T03:04:51.273Z,7.33
2022-11-24T03:07:19.286Z,7.09
2022-11-24T03:09:46.864Z,6.65
2022-11-24T03:12:14.665Z,7.08
2022-11-24T03:14:42.251Z,6.91
2022-11-24T03:17:09.709Z,6.38
2022-11-24T03:19:37.451Z,6.25
2022-11-24T03:22:05.075Z,6.07
2022-11-24T03:24:32.788Z,6.00
2022-11-24T03:27:01.049Z,6.56
2022-11-24T03:29:28.825Z,6.57
2022-11-24T03:31:56.282Z,6.38
2022-11-24T03:34:23.729Z,5.65
2022-11-24T03:36:51.174Z,6.41
2022-11-24T03:39:18.690Z,6.91
2022-11-24T03:41:46.252Z,6.65
2022-11-24T03:44:13.793Z,6.55
2022-11-24T03:46:41.377Z,6.51
2022-11-24T03:49:09.067Z,6.76
2022-11-24T03:51:36.555Z,6.37
2022-11-24T03:54:04.178Z,6.69
2022-11-24T03:56:31.682Z,6.36
2022-11-24T03:58:59.816Z,6.36
2022-11-24T04:01:27.318Z,6.00
2022-11-24T04:03:54.941Z,5.99
2022-11-24T04:06:22.463Z,6.13
2022-11-24T04:08:49.934Z,6.17
2022-11-24T04:11:35.661Z,6.41
2022-11-24T04:14:03.107Z,6.34
2022-11-24T04:16:30.572Z,6.34
2022-11-24T04:18:58.174Z,6.31
2022-11-24T04:21:25.780Z,6.18
2022-11-24T04:23:53.237Z,5.82
2022-11-24T04:26:20.713Z,5.77
2022-11-24T04:28:49.334Z,6.01
2022-11-24T04:31:16.958Z,6.06
2022-11-24T04:33:44.608Z,5.88
2022-11-24T04:36:12.192Z,5.88
2022-11-24T04:39:24.689Z,5.76
2022-11-24T04:41:27.357Z,5.69
2022-11-24T04:43:54.843Z,5.74
2022-11-24T04:46:22.309Z,5.74
2022-11-24T04:48:49.802Z,5.65
2022-11-24T04:51:17.407Z,5.58
2022-11-24T04:53:44.958Z,5.63
2022-11-24T04:56:12.424Z,5.10
2022-11-24T04:58:40.003Z,5.06
2022-11-24T05:01:08.666Z,5.06
2022-11-24T05:03:36.997Z,5.09
2022-11-24T05:06:04.946Z,5.26
2022-11-24T05:08:32.670Z,5.58
2022-11-24T05:11:07.475Z,5.31
2022-11-24T05:13:34.928Z,5.54
2022-11-24T05:16:02.524Z,5.15
2022-11-24T05:18:30.265Z,5.49
2022-11-24T05:20:58.610Z,5.49
2022-11-24T05:23:26.157Z,5.64
2022-11-24T05:25:53.906Z,5.46
2022-11-24T05:28:21.492Z,5.45
2022-11-24T05:30:49.193Z,5.46
2022-11-24T05:33:19.189Z,5.67
2022-11-24T05:35:48.329Z,5.63
2022-11-24T05:38:17.639Z,5.53
2022-11-24T05:40:45.327Z,5.71
2022-11-24T05:43:16.898Z,5.64
2022-11-24T05:45:45.050Z,5.77
2022-11-24T05:48:15.793Z,5.89
2022-11-24T05:50:44.748Z,5.57
2022-11-24T05:53:13.235Z,5.50
2022-11-24T05:55:40.998Z,5.40
2022-11-24T05:58:10.098Z,5.74
2022-11-24T06:00:37.631Z,5.71
2022-11-24T06:03:05.362Z,5.63
2022-11-24T06:05:34.408Z,5.46
2022-11-24T06:08:03.290Z,5.52
2022-11-24T06:10:31.464Z,5.44
2022-11-24T06:12:59.335Z,5.57
2022-11-24T06:15:26.880Z,5.47
2022-11-24T06:17:55.850Z,5.41
2022-11-24T06:20:32.252Z,5.55
2022-11-24T06:23:01.261Z,5.73
2022-11-24T06:25:29.332Z,5.98
2022-11-24T06:27:57.320Z,5.81
2022-11-24T06:30:24.929Z,5.94
2022-11-24T06:32:55.561Z,5.89
2022-11-24T06:35:24.310Z,5.82
2022-11-24T06:37:52.163Z,5.80
2022-11-24T06:40:19.775Z,5.91
2022-11-24T06:42:52.290Z,5.73
2022-11-24T06:45:19.735Z,5.78
2022-11-24T06:47:47.274Z,5.74
2022-11-24T06:50:14.930Z,5.78
2022-11-24T06:52:42.449Z,5.83
2022-11-24T06:55:10.088Z,5.79
2022-11-24T06:57:37.652Z,5.62
2022-11-24T07:00:07.252Z,5.99
2022-11-24T07:02:34.861Z,6.01
2022-11-24T07:05:02.744Z,5.81
2022-11-24T07:07:31.090Z,6.03
2022-11-24T07:09:59.232Z,6.64
2022-11-24T07:12:29.266Z,6.42
2022-11-24T07:14:56.811Z,6.31
2022-11-24T07:17:24.270Z,6.57
2022-11-24T07:19:51.913Z,6.32
2022-11-24T07:22:19.407Z,6.28
2022-11-24T07:24:46.827Z,6.43
2022-11-24T07:27:14.326Z,6.24
2022-11-24T07:29:41.795Z,6.32
2022-11-24T07:32:11.264Z,6.09
2022-11-24T07:34:39.096Z,6.39
2022-11-24T07:37:06.689Z,6.44
2022-11-24T07:39:34.244Z,6.63
2022-11-24T07:42:01.963Z,6.64
2022-11-24T07:44:29.529Z,6.85
2022-11-24T07:46:57.076Z,6.43
2022-11-24T07:49:24.526Z,6.65
2022-11-24T07:51:52.385Z,6.77
2022-11-24T07:54:20.625Z,6.27
2022-11-24T07:56:49.079Z,6.73
2022-11-24T07:59:16.676Z,6.55
2022-11-24T08:01:45.317Z,6.58
2022-11-24T08:04:12.953Z,6.68
2022-11-24T08:06:45.942Z,6.64
2022-11-24T08:09:14.719Z,6.64
2022-11-24T08:11:42.217Z,6.76
2022-11-24T08:14:09.736Z,6.69
2022-11-24T08:16:37.344Z,6.60
2022-11-24T08:19:04.857Z,6.74
2022-11-24T08:21:32.648Z,6.98
2022-11-24T08:24:00.111Z,7.57
2022-11-24T08:26:27.601Z,7.74
2022-11-24T08:28:57.648Z,7.23
2022-11-24T08:31:32.671Z,7.19
2022-11-24T08:34:01.848Z,7.31
2022-11-24T08:36:29.994Z,7.50
2022-11-24T08:38:59.484Z,7.35
2022-11-24T08:41:28.783Z,7.35
2022-11-24T08:43:56.585Z,7.65
2022-11-24T08:46:24.360Z,7.41
2022-11-24T08:48:53.850Z,7.34
2022-11-24T08:51:24.310Z,7.19
2022-11-24T08:53:56.561Z,7.56
2022-11-24T08:56:25.613Z,7.51
2022-11-24T08:58:55.148Z,7.34
2022-11-24T09:01:23.727Z,7.38
2022-11-24T09:03:51.905Z,7.33
2022-11-24T09:06:25.001Z,7.37
2022-11-24T09:08:54.611Z,7.36
2022-11-24T09:11:22.639Z,7.21
2022-11-24T09:13:50.526Z,7.06
2022-11-24T09:16:22.101Z,7.34
2022-11-24T09:18:55.605Z,7.16
2022-11-24T09:21:24.094Z,7.04
2022-11-24T09:23:53.347Z,7.10
2022-11-24T09:26:24.405Z,7.29
2022-11-24T09:28:54.604Z,7.26
2022-11-24T09:31:28.424Z,7.26
2022-11-24T09:33:56.795Z,7.38
2022-11-24T09:36:25.037Z,7.27
2022-11-24T09:38:52.709Z,7.63
2022-11-24T09:41:23.206Z,7.21
2022-11-24T09:44:27.152Z,7.48
2022-11-24T09:47:13.248Z,7.38
2022-11-24T09:49:59.618Z,7.21
2022-11-24T09:52:50.176Z,7.37
2022-11-24T09:55:28.024Z,7.48
2022-11-24T09:58:18.407Z,7.91
2022-11-24T10:00:48.622Z,7.61
2022-11-24T10:03:23.422Z,7.53
2022-11-24T10:05:51.626Z,7.50
2022-11-24T10:08:34.842Z,7.64
2022-11-24T10:11:11.472Z,7.48
2022-11-24T10:13:42.940Z,7.75
2022-11-24T10:16:31.688Z,7.78
2022-11-24T10:19:21.989Z,7.69
2022-11-24T10:21:57.396Z,7.67
2022-11-24T10:24:27.823Z,7.70
2022-11-24T10:27:17.502Z,7.80
2022-11-24T10:29:49.983Z,7.71
2022-11-24T10:32:26.661Z,8.01
2022-11-24T10:34:59.041Z,7.77
2022-11-24T10:37:35.307Z,8.01
2022-11-24T10:40:10.849Z,8.24
2022-11-24T10:42:45.707Z,8.12
2022-11-24T10:45:16.032Z,7.94
2022-11-24T10:47:44.613Z,8.39
2022-11-24T10:50:27.238Z,8.30
2022-11-24T10:53:19.083Z,8.31
2022-11-24T10:55:55.975Z,8.17
2022-11-24T10:58:38.013Z,8.19
2022-11-24T11:01:15.632Z,8.26
2022-11-24T11:03:49.389Z,8.55
2022-11-24T11:06:32.534Z,8.76
2022-11-24T11:09:06.194Z,9.02
2022-11-24T11:11:35.569Z,9.43
2022-11-24T11:14:05.729Z,9.59
2022-11-24T11:16:53.361Z,9.11
2022-11-24T11:19:58.425Z,8.87
2022-11-24T11:22:29.909Z,9.16
2022-11-24T11:25:24.644Z,9.14
2022-11-24T11:28:14.999Z,8.94
2022-11-24T11:31:18.148Z,9.37
2022-11-24T11:34:06.150Z,9.55
2022-11-24T11:36:43.592Z,9.07
2022-11-24T11:39:31.721Z,9.13
2022-11-24T11:45:28.022Z,9.39
2022-11-24T11:48:01.385Z,9.46
2022-11-24T11:50:47.486Z,9.11
2022-11-24T11:53:29.500Z,9.17
2022-11-24T11:56:06.887Z,8.94
2022-11-24T11:58:55.720Z,9.86
2022-11-24T12:02:00.948Z,9.56
2022-11-24T12:04:47.003Z,9.13
2022-11-24T12:07:38.724Z,9.64
2022-11-24T12:10:18.950Z,9.56
2022-11-24T12:12:56.908Z,9.75
2022-11-24T12:15:40.256Z,9.75
2022-11-24T12:18:56.041Z,9.64
2022-11-24T12:21:26.209Z,9.46
2022-11-24T12:24:18.819Z,9.51
2022-11-24T12:26:56.781Z,9.92
2022-11-24T12:30:10.724Z,9.77
2022-11-24T12:33:00.346Z,9.63
2022-11-24T12:35:46.249Z,9.69
2022-11-24T12:38:41.608Z,10.06
2022-11-24T12:41:44.699Z,11.31
2022-11-24T12:44:39.766Z,13.44
2022-11-24T12:47:16.403Z,11.40
2022-11-24T12:49:57.082Z,10.37
2022-11-24T12:52:39.814Z,9.36
2022-11-24T12:55:17.141Z,9.43
2022-11-24T12:57:49.529Z,9.21
2022-11-24T13:00:23.467Z,9.01
2022-11-24T13:02:57.419Z,8.91
2022-11-24T13:05:58.878Z,8.75
2022-11-24T13:08:28.130Z,8.92
2022-11-24T13:11:21.105Z,8.48
2022-11-24T13:14:00.837Z,8.79
2022-11-24T13:16:44.465Z,8.39
2022-11-24T13:19:22.475Z,8.45
2022-11-24T13:22:08.321Z,8.31
2022-11-24T13:24:38.746Z,8.44
2022-11-24T13:27:19.755Z,8.53
2022-11-24T13:29:49.756Z,8.20
2022-11-24T13:32:22.814Z,8.28
2022-11-24T13:34:54.895Z,8.35
2022-11-24T13:37:33.640Z,8.22
2022-11-24T13:40:23.074Z,8.30
2022-11-24T13:43:02.539Z,8.18
2022-11-24T13:45:39.038Z,8.25
2022-11-24T13:48:19.200Z,8.20
2022-11-24T13:50:49.718Z,8.25
2022-11-24T13:53:45.044Z,8.41
2022-11-24T13:56:12.443Z,8.20
2022-11-24T13:59:00.133Z,8.28
2022-11-24T14:01:33.150Z,8.28
2022-11-24T14:04:31.496Z,8.57
2022-11-24T14:07:09.818Z,8.47
2022-11-24T14:09:47.088Z,8.56
2022-11-24T14:12:25.248Z,8.53
2022-11-24T14:14:57.016Z,8.22
2022-11-24T14:17:28.058Z,8.29
2022-11-24T14:19:57.150Z,7.97
2022-11-24T14:22:26.912Z,8.07
2022-11-24T14:24:56.369Z,7.99
2022-11-24T14:27:29.875Z,8.24
2022-11-24T14:30:18.947Z,8.29
2022-11-24T14:33:03.990Z,8.30
2022-11-24T14:35:34.361Z,8.37
2022-11-24T14:38:03.822Z,8.17
2022-11-24T14:40:48.464Z,8.14
2022-11-24T14:43:22.563Z,8.10
2022-11-24T14:46:09.175Z,8.06
2022-11-24T14:48:39.047Z,7.99
2022-11-24T14:51:07.208Z,7.81
2022-11-24T14:53:35.581Z,7.77
2022-11-24T14:56:23.831Z,7.86
2022-11-24T14:58:52.968Z,7.69
2022-11-24T15:01:28.411Z,7.43
2022-11-24T15:04:54.550Z,7.54
2022-11-24T15:07:26.046Z,7.09
2022-11-24T15:09:58.183Z,6.95
2022-11-24T15:12:40.791Z,7.22
2022-11-24T15:15:14.129Z,7.23
2022-11-24T15:17:55.607Z,6.83
2022-11-24T15:20:46.141Z,6.73
2022-11-24T15:23:13.666Z,6.77
2022-11-24T15:25:41.287Z,6.67
2022-11-24T15:28:09.277Z,6.55
2022-11-24T15:30:37.658Z,6.64
2022-11-24T15:33:14.729Z,6.56
2022-11-24T15:35:42.783Z,6.46
2022-11-24T15:38:10.863Z,6.47
2022-11-24T15:40:39.490Z,6.53
2022-11-24T15:43:25.242Z,6.45
2022-11-24T15:45:52.962Z,6.37
2022-11-24T15:48:20.490Z,6.32
2022-11-24T15:50:49.057Z,6.37
2022-11-24T15:53:35.720Z,6.22
2022-11-24T15:56:06.241Z,6.21
2022-11-24T15:58:33.965Z,6.23
2022-11-24T16:01:01.474Z,6.35
2022-11-24T16:06:24.693Z,6.21
2022-11-24T16:08:53.908Z,6.23
2022-11-24T16:11:22.563Z,6.14
2022-11-24T16:13:53.301Z,6.13
2022-11-24T16:16:24.804Z,6.11
2022-11-24T16:18:52.757Z,6.09
2022-11-24T16:21:20.643Z,6.02
2022-11-24T16:23:48.791Z,5.97
2022-11-24T16:26:16.327Z,5.94
2022-11-24T16:28:45.811Z,5.95
2022-11-24T16:31:15.799Z,6.03
2022-11-24T16:33:45.358Z,5.87
2022-11-24T16:36:14.401Z,5.97
2022-11-24T16:38:42.148Z,5.82
2022-11-24T16:41:10.414Z,5.93
2022-11-24T16:43:38.436Z,5.89
2022-11-24T16:46:19.356Z,5.85
2022-11-24T16:48:49.404Z,5.82
2022-11-24T16:51:18.308Z,5.72
2022-11-24T16:53:46.274Z,5.66
2022-11-24T16:56:14.814Z,5.75
2022-11-24T16:58:42.334Z,5.62
2022-11-24T17:01:12.372Z,5.66
2022-11-24T17:03:41.011Z,5.52
2022-11-24T17:06:13.482Z,5.56
2022-11-24T17:08:42.082Z,5.61
2022-11-24T17:11:10.562Z,5.53
2022-11-24T17:13:38.926Z,5.73
2022-11-24T17:16:10.203Z,5.65
2022-11-24T17:18:38.980Z,5.57
2022-11-24T17:21:11.967Z,5.53
2022-11-24T17:23:40.055Z,5.56
2022-11-24T17:26:11.541Z,5.37
2022-11-24T17:28:40.472Z,5.75
2022-11-24T17:31:10.408Z,5.77
2022-11-24T17:33:37.998Z,5.69
2022-11-24T17:36:06.714Z,5.42
2022-11-24T17:38:35.158Z,5.18
2022-11-24T17:41:03.037Z,5.20
2022-11-24T17:43:30.756Z,5.06
2022-11-24T17:46:01.965Z,5.06
2022-11-24T17:48:31.135Z,5.00
2022-11-24T17:51:04.486Z,5.15
2022-11-24T17:53:32.193Z,5.08
2022-11-24T17:56:00.975Z,4.91
2022-11-24T17:58:30.415Z,4.92
2022-11-24T18:00:59.422Z,5.03
2022-11-24T18:03:28.696Z,5.08
2022-11-24T18:05:56.279Z,4.99
2022-11-24T18:08:24.313Z,4.88
2022-11-24T18:10:52.027Z,4.91
2022-11-24T18:13:48.448Z,4.88
2022-11-24T18:16:10.381Z,4.99
2022-11-24T18:18:40.369Z,4.83
2022-11-24T18:21:17.342Z,4.71
2022-11-24T18:23:46.671Z,4.69
2022-11-24T18:26:15.940Z,4.68
2022-11-24T18:28:44.681Z,4.74
2022-11-24T18:31:15.502Z,4.74
2022-11-24T18:33:44.133Z,4.58
2022-11-24T18:36:17.731Z,4.62
2022-11-24T18:38:46.012Z,4.61
2022-11-24T18:41:14.775Z,4.48
2022-11-24T18:43:43.283Z,4.47
2022-11-24T18:46:16.297Z,4.58
2022-11-24T18:48:45.837Z,4.49
2022-11-24T18:51:16.259Z,4.48
2022-11-24T18:53:45.810Z,4.40
2022-11-24T18:56:16.264Z,4.42
2022-11-24T18:58:44.567Z,4.39
2022-11-24T19:01:14.952Z,4.39
2022-11-24T19:03:48.916Z,4.32
2022-11-24T19:06:18.502Z,4.26
2022-11-24T19:08:47.712Z,4.30
2022-11-24T19:11:22.774Z,4.37
2022-11-24T19:13:50.821Z,4.31
2022-11-24T19:16:20.026Z,4.34
2022-11-24T19:18:53.707Z,4.16
2022-11-24T19:21:22.864Z,4.31
2022-11-24T19:23:50.667Z,4.47
2022-11-24T19:26:18.839Z,4.53
2022-11-24T19:28:48.172Z,4.38
2022-11-24T19:31:18.075Z,4.24
2022-11-24T19:33:46.157Z,4.28
2022-11-24T19:36:16.930Z,4.27
2022-11-24T19:38:55.811Z,4.45
2022-11-24T19:41:26.503Z,4.34
2022-11-24T19:43:54.995Z,4.64
2022-11-24T19:46:27.127Z,4.81
2022-11-24T19:48:57.187Z,4.85
2022-11-24T19:51:28.373Z,4.86
2022-11-24T19:53:56.942Z,4.97
2022-11-24T19:56:27.783Z,5.06
2022-11-24T19:58:55.970Z,4.86
2022-11-24T20:01:26.362Z,5.04
2022-11-24T20:04:00.293Z,5.32
2022-11-24T20:06:32.811Z,5.09
2022-11-24T20:09:01.257Z,5.25
2022-11-24T20:11:29.867Z,5.29
2022-11-24T20:13:58.189Z,5.33
2022-11-24T20:16:31.001Z,5.49
2022-11-24T20:19:01.540Z,5.30
2022-11-24T20:21:32.583Z,5.18
2022-11-24T20:24:03.977Z,4.86
2022-11-24T20:26:35.478Z,5.04
2022-11-24T20:29:05.228Z,4.66
2022-11-24T20:31:35.890Z,4.25
2022-11-24T20:34:05.946Z,4.80
2022-11-24T20:36:35.623Z,4.72
2022-11-24T20:39:06.648Z,4.71
2022-11-24T20:41:36.398Z,4.54
2022-11-24T20:44:10.602Z,4.60
2022-11-24T20:46:40.342Z,4.78
2022-11-24T20:49:10.739Z,4.64
2022-11-24T20:51:41.940Z,4.75
2022-11-24T20:54:11.224Z,5.07
2022-11-24T20:56:41.418Z,4.89
2022-11-24T20:59:13.737Z,4.98
2022-11-24T21:01:45.363Z,5.02
2022-11-24T21:04:16.925Z,4.83
2022-11-24T21:06:44.778Z,4.68
2022-11-24T21:09:13.738Z,4.64
2022-11-24T21:11:41.424Z,4.68
2022-11-24T21:14:09.688Z,4.01
2022-11-24T21:16:38.884Z,4.28
2022-11-24T21:19:18.277Z,4.66
2022-11-24T21:21:47.724Z,4.97
2022-11-24T21:24:17.640Z,4.90
2022-11-24T21:26:51.288Z,4.69
2022-11-24T21:29:22.193Z,4.57
2022-11-24T21:31:49.994Z,4.68
2022-11-24T21:34:20.942Z,4.75
2022-11-24T21:36:48.445Z,4.55
2022-11-24T21:39:16.288Z,4.47
2022-11-24T21:41:44.085Z,4.43
2022-11-24T21:44:13.475Z,3.90
2022-11-24T21:46:46.133Z,3.84
2022-11-24T21:49:18.573Z,3.76
2022-11-24T21:51:48.166Z,3.85
2022-11-24T21:54:15.620Z,3.85
2022-11-24T21:56:43.117Z,3.80
2022-11-24T21:59:10.758Z,3.81
2022-11-24T22:01:38.536Z,3.86
2022-11-24T22:04:09.911Z,3.78
2022-11-24T22:06:37.859Z,3.66
2022-11-24T22:09:05.336Z,3.57
2022-11-24T22:11:32.782Z,3.78
2022-11-24T22:14:00.315Z,3.99
2022-11-24T22:16:28.144Z,3.77
2022-11-24T22:18:55.842Z,3.47
2022-11-24T22:21:29.234Z,3.44
2022-11-24T22:23:56.948Z,3.49
2022-11-24T22:26:25.559Z,3.57
2022-11-24T22:28:57.381Z,3.58
2022-11-24T22:31:27.773Z,3.62
2022-11-24T22:33:56.629Z,3.62
2022-11-24T22:36:26.208Z,3.41
2022-11-24T22:39:04.764Z,3.60
2022-11-24T22:41:34.249Z,3.69
2022-11-24T22:44:02.381Z,3.61
2022-11-24T22:46:31.095Z,3.93
2022-11-24T22:49:00.977Z,4.06
2022-11-24T22:51:31.495Z,4.13
2022-11-24T22:54:02.315Z,4.26
2022-11-24T22:56:32.473Z,4.33
2022-11-24T22:59:01.544Z,4.27
2022-11-24T23:01:30.571Z,4.28
2022-11-24T23:03:58.119Z,4.27
2022-11-24T23:06:28.462Z,4.22
2022-11-24T23:08:57.519Z,4.08
2022-11-24T23:11:36.419Z,4.16
2022-11-24T23:14:13.283Z,4.18
2022-11-24T23:16:41.293Z,4.31
2022-11-24T23:19:10.093Z,4.06
2022-11-24T23:21:38.612Z,3.95
2022-11-24T23:24:08.458Z,4.02
2022-11-24T23:26:38.574Z,4.12
2022-11-24T23:29:07.257Z,4.14
2022-11-24T23:31:35.576Z,4.05
2022-11-24T23:34:04.034Z,4.05
2022-11-24T23:36:32.545Z,4.08
2022-11-24T23:39:08.053Z,3.86
2022-11-24T23:41:35.892Z,3.87
2022-11-24T23:44:03.775Z,4.00
2022-11-24T23:46:31.353Z,4.02
2022-11-24T23:48:59.368Z,4.18
2022-11-24T23:51:31.906Z,4.06
2022-11-24T23:54:00.336Z,3.89
2022-11-24T23:56:32.658Z,3.71
2022-11-24T23:59:02.409Z,3.66
